Ziergdsx18's FFR replays

1 - 50 | 51 - 60
Song Results (Perf-Good-Avg-Miss-Boo) Max Combo Score Date
do i smile? 2,088 - 21 - 2 - 1 - 2 1,994 3,147,935 5/29/12
Hardkore Atomic 1,032 - 2 - 0 - 0 - 1 1,034 1,602,130 5/29/12
Scrap Syndrome 2,430 - 7 - 0 - 0 - 0 2,437 3,775,425 3/25/12
Lawn Wake II 1,577 - 0 - 0 - 0 - 0 1,577 2,444,350 3/19/12
NaiNai 69 1,323 - 0 - 0 - 0 - 0 1,323 2,050,650 3/16/12
do i smile? 2,097 - 12 - 1 - 2 - 7 1,287 2,442,945 3/14/12
DeVouR 1,473 - 5 - 0 - 0 - 0 1,478 2,289,525 3/9/12
Counter Clockwise Chant Pattern 1,414 - 8 - 0 - 1 - 1 1,334 2,113,570 3/9/12
Red Wings Over Baron 4,308 - 4 - 0 - 0 - 0 4,312 6,682,500 3/9/12
Rain [YMCK] 3,349 - 6 - 0 - 0 - 0 3,355 5,198,600 3/9/12
Red Wings Over Baron 4,308 - 4 - 0 - 0 - 1 4,312 6,682,480 3/9/12
Mermaid Island 1,249 - 0 - 0 - 0 - 0 1,249 1,935,950 12/24/11
FREEDOM DiVE 2,249 - 7 - 0 - 0 - 1 2,256 3,494,855 12/22/11
One Minute Waltz 1,052 - 5 - 0 - 0 - 4 1,057 1,636,895 12/14/11
Mourning the Lost 2,307 - 0 - 0 - 0 - 0 2,307 3,575,850 12/8/11
Integraation 1,928 - 2 - 0 - 0 - 0 1,930 2,990,950 11/29/11
Kono spoon, suteki desu ne 1,357 - 0 - 0 - 0 - 0 1,357 2,103,350 11/28/11
Eclipse (Solar) 1,440 - 5 - 0 - 0 - 0 1,445 2,238,375 11/28/11
BEER 1,170 - 1 - 0 - 0 - 0 1,171 1,814,775 11/22/11
Here We Go 1,199 - 3 - 0 - 1 - 0 982 1,641,965 11/21/11
Revolutionary Etude 1,574 - 20 - 6 - 0 - 15 1,600 2,471,230 11/19/11
RAN 1,751 - 2 - 1 - 0 - 3 1,754 2,717,595 11/14/11
A Kidney Stone 1,618 - 1 - 0 - 0 - 1 1,619 2,509,155 11/11/11
Rage Template 1,576 - 3 - 1 - 0 - 1 1,580 2,447,660 11/9/11
Hardkore Atomic 1,032 - 2 - 0 - 0 - 5 1,034 1,602,050 11/6/11
Toxiferous Dystopia 1,456 - 0 - 0 - 0 - 0 1,456 2,256,800 11/5/11
Coactive [Over My Shoulder Mix] 1,286 - 2 - 0 - 0 - 1 1,288 1,995,830 11/4/11
Bogey at your Six 2,148 - 0 - 0 - 0 - 0 2,148 3,329,400 11/3/11
Vertex BETA vrofl 2,844 - 1,050 - 722 - 0 - 1,480 4,616 6,479,060 11/2/11
honki sentai majirenjaa -MAJI eurobeat version- 1,830 - 0 - 0 - 0 - 0 1,830 2,836,500 11/1/11
Counter Clockwise Chant Pattern 1,415 - 8 - 0 - 0 - 0 1,423 2,203,450 10/24/11
OMGWTFT0k3N 1,878 - 25 - 11 - 9 - 9 803 1,840,410 10/24/11
RAN 1,751 - 2 - 0 - 1 - 1 945 1,908,270 10/23/11
/mu/tant corecore 506 - 0 - 0 - 0 - 0 506 784,300 10/16/11
Winter Wind Etude 2,383 - 20 - 4 - 0 - 8 2,407 3,723,210 10/15/11
Necropotence 1,693 - 2 - 0 - 0 - 1 1,695 2,626,680 10/10/11
Grand Galop Chromatique 2,359 - 2 - 0 - 0 - 0 2,361 3,659,000 10/4/11
Blue Rose 3,619 - 2 - 0 - 1 - 0 2,512 4,502,690 9/23/11
Dendrite v2 1,299 - 0 - 0 - 0 - 0 1,299 2,013,450 9/20/11
A Quick Death 1,632 - 19 - 0 - 0 - 3 1,651 2,553,765 9/18/11
Mathsma Attack 2,583 - 4 - 0 - 0 - 0 2,587 4,008,750 9/12/11
Pants 3,024 - 0 - 0 - 0 - 0 3,024 4,687,200 9/11/11
Chik Habit 1,569 - 3 - 1 - 0 - 4 1,573 2,436,750 9/10/11
J'ai Envie de Plaisir X2 1,646 - 6 - 0 - 0 - 5 1,652 2,558,850 9/5/11
Flesvelka 1,658 - 0 - 0 - 0 - 0 1,658 2,569,900 9/4/11
Sparkle Downer 1,360 - 0 - 0 - 0 - 0 1,360 2,108,000 9/3/11
Gunkienen Tarusuigin 1,489 - 0 - 0 - 0 - 0 1,489 2,307,950 9/3/11
Einstein-Rosen Bridge 1,282 - 0 - 0 - 0 - 3 1,282 1,987,040 9/1/11
==Planet KARMA== 3,074 - 1 - 0 - 0 - 0 3,075 4,765,975 6/23/11
Tageri 1,944 - 1 - 0 - 0 - 0 1,945 3,014,475 6/13/11
1 - 50 | 51 - 60